« Back
NWS Peachtree City, Ga » Text Product » MCN Terminal Aerodrome Forecast


Printer-friendly Version
Current Version              Previous Versions:   1  2  3  4  5  6  7  8  9  

Terminal Aerodrome Forecast

737
FTUS42 KFFC 051025 AAB
TAFMCN
TAF AMD
KMCN 051025Z 0510/0606 20008G17KT P6SM BKN012
      TEMPO 0510/0512 1SM RA OVC008
     FM051200 20009KT P6SM OVC006
     FM051400 21011KT 5SM -RA OVC006
      TEMPO 0516/0520 1SM RA
     FM052000 25010KT 5SM -RA OVC012
     FM052200 32012G17KT P6SM OVC025
     FM060100 34010KT P6SM OVC019=

USA.gov is the U.S. government's official web portal to all federal, state and local government web resources and services.